首页
METAR-TAF:

METAR-TAF

机场 :

马德普拉塔, 阿根廷

纬度: 37-56S, 经度: 057-35W, 海拔: 18米

当前天气观测

该预报发布于31分钟前的15:00 UTC
风速16节,风向
温度 13°C
湿度 77%
气压 1024 hPa
能见度10公里或以上
1500米以下无云,无积雨云

METAR: SAZM 161500Z 36016KT CAVOK 13/09 Q1024

时间: 12:31 (15:31 UTC)

预报

该预报发布于3小时和46分钟前的11:45 UTC
预报有效从16日的 12点(UTC)到 17日的 12点(UTC)
风速15节,风向北转西北
能見度: 0900
阴天层高于300英尺
成为
从 16日的 12点(UTC)到 16日的 14点(UTC)
风速15节,风向北转西北,有时为25节阵风
能见度10公里或以上
1500米以下无云,无积雨云
短暂存在
从 17日的 03点(UTC)到 17日的 06点(UTC)
成为
从 17日的 09点(UTC)到 17日的 12点(UTC)
风速15节,风向

TAF: SAZM 161145Z 1612/1712 34015KT 0900 FG OVC003 TX16/1618Z TN09/1710Z BECMG 1612/1614 34015G25KT CAVOK TEMPO 1703/1706 34015GG30KT BECMG 1709/1712 36015KT

超过4000个机场的气象观测和天气预报(METAR&TAF报告)。

可查询的气象台以黄色和红色小点在地图上表示。

将鼠标移到小点上方,可查看气象台名称。

然后点击查看天气观测和预报。

如需切换地图:点击带黑十字的绿色按钮放大地图;点击带横线的绿色按钮缩小地图;或者点击绿色箭头查看邻近地区的地图。


METAR-TAF: